Time;durP1;ratioP1;P1;durP2;ratioP2;P2;SDS_P1;SDS_P2;PMS_P1;PMS_P2;Temp;Humidity;BMP_temperature;BMP_pressure;BME280_temperature;BME280_humidity;BME280_pressure;Samples;Min_cycle;Max_cycle;Signal;HPM_P1;HPM_P2
2024/03/06 00:02:08;;;;;;;79.03;57.17;;;282.30;2278.40;;;;;;5026099;28;20468;-73
2024/03/06 00:04:34;;;;;;;79.72;57.05;;;282.20;2278.40;;;;;;5026511;28;20029;-71
2024/03/06 00:07:00;;;;;;;81.28;54.97;;;282.20;2278.40;;;;;;5025723;28;20025;-72
2024/03/06 00:09:27;;;;;;;72.13;53.58;;;282.20;2278.40;;;;;;5014781;28;20084;-71
2024/03/06 00:11:53;;;;;;;81.03;56.45;;;282.20;2278.40;;;;;;5012730;28;20030;-72
2024/03/06 00:14:21;;;;;;;99.32;77.90;;;282.10;2278.40;;;;;;5017005;28;20532;-73
2024/03/06 00:16:47;;;;;;;101.32;68.88;;;282.10;2278.40;;;;;;5027751;28;20472;-73
2024/03/06 00:19:13;;;;;;;82.30;57.38;;;282.00;2278.40;;;;;;5016806;28;20030;-72
2024/03/06 00:21:39;;;;;;;65.90;42.45;;;282.00;2278.40;;;;;;5002070;28;20052;-71
2024/03/06 00:24:05;;;;;;;66.47;43.17;;;282.00;2278.40;;;;;;4993730;28;20021;-73
2024/03/06 00:26:31;;;;;;;59.88;39.35;;;281.80;2278.40;;;;;;4997184;28;20056;-71
2024/03/06 00:28:57;;;;;;;49.08;35.58;;;281.90;2278.40;;;;;;4992767;28;20018;-72
2024/03/06 00:31:22;;;;;;;57.03;40.50;;;281.90;2278.40;;;;;;4995236;28;20029;-71
2024/03/06 00:33:48;;;;;;;58.03;43.33;;;281.80;2278.40;;;;;;5004767;28;20049;-74
2024/03/06 00:36:14;;;;;;;68.72;47.40;;;281.80;2278.40;;;;;;5011825;28;20036;-74
2024/03/06 00:38:40;;;;;;;53.92;40.28;;;281.90;2278.40;;;;;;5017032;28;20380;-71
2024/03/06 00:41:06;;;;;;;69.63;50.22;;;281.70;2278.40;;;;;;5011605;28;20104;-72
2024/03/06 00:43:31;;;;;;;73.38;52.65;;;281.60;2278.40;;;;;;4998519;28;20109;-71
2024/03/06 00:45:59;;;;;;;80.28;54.25;;;;;;;;;;5014063;28;20091;-72
2024/03/06 00:48:25;;;;;;;66.35;44.92;;;256.90;2252.80;;;;;;5011121;28;20018;-72
2024/03/06 00:50:51;;;;;;;58.92;44.42;;;256.70;2252.80;;;;;;5010413;28;20033;-72
2024/03/06 00:53:16;;;;;;;59.85;43.63;;;282.10;2278.40;;;;;;5004508;28;20113;-73
2024/03/06 00:55:42;;;;;;;58.60;43.17;;;256.80;2252.80;;;;;;5005019;28;20088;-72
2024/03/06 00:58:08;;;;;;;68.30;48.33;;;256.80;2252.80;;;;;;5012043;28;20030;-73
2024/03/06 01:00:34;;;;;;;76.32;52.38;;;256.50;2252.80;;;;;;5009220;28;20375;-73
2024/03/06 01:03:00;;;;;;;74.25;49.65;;;;;;;;;;5015797;28;20053;-73
2024/03/06 01:05:27;;;;;;;72.15;51.88;;;;;;;;;;5008215;28;20179;-73
2024/03/06 01:07:54;;;;;;;74.55;53.90;;;;;;;;;;5008166;28;20026;-73
2024/03/06 01:10:20;;;;;;;76.80;56.75;;;;;;;;;;5008419;28;20018;-73
2024/03/06 01:12:46;;;;;;;71.30;51.33;;;;;;;;;;5008447;28;20030;-76
2024/03/06 01:15:12;;;;;;;80.47;60.28;;;;;;;;;;5008337;28;20101;-77
2024/03/06 01:17:39;;;;;;;70.25;54.10;;;;;;;;;;5008509;28;20086;-76
2024/03/06 01:20:08;;;;;;;60.90;45.30;;;;;;;;;;5008031;28;20551;-77
2024/03/06 01:22:35;;;;;;;66.68;46.20;;;;;;;;;;5010732;28;20491;-77
2024/03/06 01:25:01;;;;;;;59.60;42.78;;;;;;;;;;5011446;28;20038;-76
2024/03/06 01:27:28;;;;;;;65.55;49.55;;;;;;;;;;5011661;28;20522;-73
2024/03/06 01:29:54;;;;;;;75.40;64.40;;;;;;;;;;5011476;28;20467;-79
2024/03/06 01:32:20;;;;;;;65.38;45.75;;;;;;;;;;5012051;28;20029;-73
2024/03/06 01:34:46;;;;;;;64.35;44.15;;;256.10;2252.80;;;;;;5011715;28;20445;-81
2024/03/06 01:37:11;;;;;;;68.40;42.88;;;256.00;2252.80;;;;;;5011415;28;20062;-72
2024/03/06 01:39:37;;;;;;;62.00;41.88;;;256.00;2252.80;;;;;;5011568;28;20022;-72
2024/03/06 01:42:04;;;;;;;69.80;42.55;;;;;;;;;;5011262;28;20113;-72
2024/03/06 01:44:30;;;;;;;60.22;44.65;;;;;;;;;;5011325;28;20018;-72
2024/03/06 01:46:56;;;;;;;66.97;43.80;;;;;;;;;;5011287;28;20107;-73
2024/03/06 01:49:23;;;;;;;60.97;42.10;;;;;;;;;;5011532;28;20030;-79
2024/03/06 01:51:50;;;;;;;60.08;43.00;;;;;;;;;;5011500;28;20495;-72
2024/03/06 01:54:16;;;;;;;69.20;45.53;;;;;;;;;;5011078;28;20040;-74
2024/03/06 01:56:46;;;;;;;65.28;46.08;;;;;;;;;;5010688;28;20026;-72
2024/03/06 01:59:19;;;;;;;71.93;51.08;;;;;;;;;;5010997;28;20018;-73
2024/03/06 02:01:46;;;;;;;64.22;44.28;;;;;;;;;;5010756;28;20372;-77
2024/03/06 02:04:12;;;;;;;63.28;43.53;;;;;;;;;;5010969;28;20022;-72
2024/03/06 02:06:39;;;;;;;59.72;38.90;;;;;;;;;;5010730;28;20045;-73
2024/03/06 02:09:06;;;;;;;52.53;39.05;;;;;;;;;;5010686;28;20121;-78
2024/03/06 02:11:33;;;;;;;51.60;38.33;;;;;;;;;;5010754;28;20029;-73
2024/03/06 02:13:59;;;;;;;54.55;40.78;;;;;;;;;;5011132;28;20022;-75
2024/03/06 02:16:26;;;;;;;53.67;37.05;;;;;;;;;;5010809;28;20055;-73
2024/03/06 02:18:56;;;;;;;49.97;37.03;;;;;;;;;;4998346;28;20021;-72
2024/03/06 02:21:23;;;;;;;53.60;34.97;;;;;;;;;;5010522;28;20033;-74
2024/03/06 02:23:51;;;;;;;50.22;34.80;;;;;;;;;;5010542;28;20025;-72
2024/03/06 02:26:17;;;;;;;55.80;35.97;;;;;;;;;;5010108;28;20060;-72
2024/03/06 02:28:50;;;;;;;51.15;36.58;;;;;;;;;;5010532;28;20473;-73
2024/03/06 02:31:19;;;;;;;56.15;36.30;;;;;;;;;;5010402;28;20026;-72
2024/03/06 02:33:47;;;;;;;50.03;39.33;;;;;;;;;;5009928;28;20026;-73
2024/03/06 02:36:13;;;;;;;51.03;35.95;;;;;;;;;;5010135;28;20484;-72
2024/03/06 02:38:39;;;;;;;52.53;40.10;;;;;;;;;;5010169;28;20427;-72
2024/03/06 02:41:06;;;;;;;57.17;42.30;;;231.30;2252.80;;;;;;5010211;28;20022;-72
2024/03/06 02:43:33;;;;;;;52.85;37.00;;;231.20;2252.80;;;;;;5010399;28;20444;-73
2024/03/06 02:45:58;;;;;;;44.50;32.60;;;231.20;2252.80;;;;;;5010024;28;20125;-73
2024/03/06 02:48:24;;;;;;;45.20;32.35;;;231.10;2252.80;;;;;;5010097;28;20093;-75
2024/03/06 02:50:52;;;;;;;44.28;30.00;;;231.20;2252.80;;;;;;5009928;28;20571;-73
2024/03/06 02:53:17;;;;;;;42.35;31.55;;;231.30;2252.80;;;;;;5009647;28;20483;-86
2024/03/06 02:55:43;;;;;;;38.75;30.33;;;256.00;2252.80;;;;;;5010377;28;20033;-79
2024/03/06 02:58:09;;;;;;;47.53;30.08;;;256.00;2252.80;;;;;;5010683;28;20211;-78
2024/03/06 03:00:35;;;;;;;40.67;30.02;;;256.10;2252.80;;;;;;5010048;28;20021;-88
2024/03/06 03:03:00;;;;;;;45.08;29.98;;;256.20;2252.80;;;;;;5010374;28;20080;-89
2024/03/06 03:05:26;;;;;;;45.83;33.95;;;256.30;2252.80;;;;;;5010165;28;20100;-88
2024/03/06 03:07:52;;;;;;;45.50;30.65;;;256.40;2252.80;;;;;;5009925;28;20108;-73
2024/03/06 03:10:18;;;;;;;42.80;31.15;;;256.50;2252.80;;;;;;5009808;28;20032;-73
2024/03/06 03:12:44;;;;;;;41.13;30.40;;;256.60;2252.80;;;;;;5009660;28;20022;-73
2024/03/06 03:15:10;;;;;;;43.67;29.95;;;281.70;2278.40;;;;;;5009808;28;20113;-73
2024/03/06 03:17:36;;;;;;;43.15;32.03;;;256.80;2252.80;;;;;;5009385;28;20029;-75
2024/03/06 03:20:20;;;;;;;41.00;31.13;;;256.90;2252.80;;;;;;5009504;28;20045;-73
2024/03/06 03:22:46;;;;;;;66.20;42.38;;;256.90;2252.80;;;;;;5009397;28;20034;-72
2024/03/06 03:25:13;;;;;;;57.55;39.28;;;256.40;2252.80;;;;;;5009367;28;20494;-77
2024/03/06 03:27:40;;;;;;;56.13;39.92;;;256.00;2252.80;;;;;;4991793;28;20045;-73
2024/03/06 03:30:12;;;;;;;53.42;37.63;;;231.20;2252.80;;;;;;5009534;28;20022;-75
2024/03/06 03:32:38;;;;;;;50.08;35.80;;;231.10;2252.80;;;;;;5009535;28;20112;-75
2024/03/06 03:35:05;;;;;;;54.38;37.47;;;231.20;2252.80;;;;;;5009381;28;20022;-73
2024/03/06 03:37:31;;;;;;;54.38;36.20;;;231.30;2252.80;;;;;;5009231;28;20097;-73
2024/03/06 03:39:57;;;;;;;50.92;35.88;;;256.30;2252.80;;;;;;5009028;28;20022;-72
2024/03/06 03:42:23;;;;;;;58.22;42.58;;;256.20;2252.80;;;;;;5008948;28;20022;-74
2024/03/06 03:44:49;;;;;;;57.30;42.97;;;256.20;2252.80;;;;;;5008579;28;20072;-74
2024/03/06 03:47:14;;;;;;;58.72;41.28;;;256.10;2252.80;;;;;;5008813;28;20084;-73
2024/03/06 03:49:40;;;;;;;50.15;37.00;;;256.30;2252.80;;;;;;5009202;28;20053;-73
2024/03/06 03:52:06;;;;;;;55.10;38.60;;;256.40;2252.80;;;;;;5008794;28;20048;-76
2024/03/06 03:54:32;;;;;;;56.88;42.42;;;256.50;2252.80;;;;;;5009237;28;20018;-73
2024/03/06 03:56:59;;;;;;;57.13;43.00;;;256.40;2252.80;;;;;;5008852;28;20022;-72
2024/03/06 03:59:25;;;;;;;58.45;41.28;;;256.50;2252.80;;;;;;5008914;28;20072;-75
2024/03/06 04:01:52;;;;;;;58.38;40.80;;;256.60;2252.80;;;;;;5009080;28;20033;-73
2024/03/06 04:04:17;;;;;;;64.63;45.08;;;256.50;2252.80;;;;;;5009336;28;20056;-75
2024/03/06 04:06:43;;;;;;;63.40;42.70;;;256.40;2252.80;;;;;;5008517;28;20030;-73
2024/03/06 04:09:14;;;;;;;61.00;40.72;;;256.30;2252.80;;;;;;5009069;28;20384;-75
2024/03/06 04:11:40;;;;;;;57.75;36.95;;;256.40;2252.80;;;;;;5008789;28;20099;-76
2024/03/06 04:14:07;;;;;;;88.63;62.03;;;256.40;2252.80;;;;;;5009020;28;20060;-74
2024/03/06 04:16:36;;;;;;;62.22;40.92;;;256.50;2252.80;;;;;;5008654;28;20030;-74
2024/03/06 04:19:02;;;;;;;54.17;36.13;;;256.50;2252.80;;;;;;4991223;28;20386;-73
2024/03/06 04:21:27;;;;;;;51.22;35.10;;;256.30;2252.80;;;;;;5008394;28;20491;-75
2024/03/06 04:23:53;;;;;;;45.72;32.38;;;256.30;2252.80;;;;;;5008473;28;20109;-74
2024/03/06 04:26:20;;;;;;;45.58;31.38;;;256.30;2252.80;;;;;;5008453;28;20046;-74
2024/03/06 04:28:46;;;;;;;35.05;25.73;;;256.20;2252.80;;;;;;5008762;28;20112;-72
2024/03/06 04:31:11;;;;;;;39.42;27.73;;;256.20;2252.80;;;;;;5008796;28;20520;-73
2024/03/06 04:33:37;;;;;;;43.53;30.73;;;256.20;2252.80;;;;;;5008744;28;20026;-76
2024/03/06 04:36:07;;;;;;;43.45;28.48;;;256.20;2252.80;;;;;;5008678;28;20026;-73
2024/03/06 04:38:33;;;;;;;35.22;27.35;;;256.10;2252.80;;;;;;5008542;28;20029;-74
2024/03/06 04:40:58;;;;;;;40.33;27.55;;;256.20;2252.80;;;;;;5008387;28;20026;-75
2024/03/06 04:43:24;;;;;;;35.97;26.08;;;256.20;2252.80;;;;;;5008508;28;20017;-73
2024/03/06 04:45:50;;;;;;;36.67;26.70;;;256.20;2252.80;;;;;;5008564;28;20064;-74
2024/03/06 04:48:16;;;;;;;44.35;27.35;;;256.40;2252.80;;;;;;5008538;28;20456;-73
2024/03/06 04:50:41;;;;;;;42.55;26.88;;;256.30;2252.80;;;;;;4995468;28;20453;-74
2024/03/06 04:53:07;;;;;;;36.17;26.20;;;256.40;2252.80;;;;;;5008373;28;20059;-75
2024/03/06 04:55:36;;;;;;;49.80;32.70;;;256.30;2252.80;;;;;;5008155;28;20022;-73
2024/03/06 04:58:02;;;;;;;43.75;27.55;;;256.40;2252.80;;;;;;5012176;28;20537;-73
2024/03/06 05:00:29;;;;;;;37.30;25.70;;;256.50;2252.80;;;;;;5012291;28;20030;-72
2024/03/06 05:02:55;;;;;;;42.45;29.70;;;256.30;2252.80;;;;;;5012352;28;20018;-73
2024/03/06 05:05:22;;;;;;;37.67;26.30;;;256.60;2252.80;;;;;;5012057;28;20030;-73
2024/03/06 05:07:48;;;;;;;43.92;31.40;;;256.60;2252.80;;;;;;5012351;28;20345;-73
2024/03/06 05:10:16;;;;;;;37.95;29.00;;;256.60;2252.80;;;;;;5011578;28;20033;-72
2024/03/06 05:12:42;;;;;;;43.65;30.60;;;256.60;2252.80;;;;;;5012258;28;20117;-76
2024/03/06 05:15:10;;;;;;;41.33;28.88;;;256.90;2252.80;;;;;;5012072;28;20022;-76
2024/03/06 05:17:36;;;;;;;38.22;26.25;;;256.60;2252.80;;;;;;5012024;28;20049;-73
2024/03/06 05:20:03;;;;;;;43.42;30.05;;;256.70;2252.80;;;;;;5011693;28;20030;-74
2024/03/06 05:22:29;;;;;;;47.85;31.25;;;256.70;2252.80;;;;;;5011876;28;20460;-72
2024/03/06 05:24:55;;;;;;;43.38;32.42;;;281.70;2278.40;;;;;;5011380;28;20033;-74
2024/03/06 05:27:21;;;;;;;46.40;32.88;;;256.80;2252.80;;;;;;5011896;28;20058;-77
2024/03/06 05:29:47;;;;;;;43.42;31.90;;;256.80;2252.80;;;;;;5011536;28;20014;-73
2024/03/06 05:32:12;;;;;;;47.40;32.75;;;256.60;2252.80;;;;;;5011774;28;20048;-73
2024/03/06 05:34:38;;;;;;;52.90;35.58;;;256.90;2252.80;;;;;;5013874;28;20399;-73
2024/03/06 05:37:05;;;;;;;50.92;35.53;;;256.70;2252.80;;;;;;5020440;28;20416;-73
2024/03/06 05:39:32;;;;;;;65.97;41.50;;;256.70;2252.80;;;;;;5011444;28;20014;-75
2024/03/06 05:42:03;;;;;;;60.20;38.45;;;256.80;2252.80;;;;;;5011213;28;20036;-73
2024/03/06 05:44:30;;;;;;;58.53;41.00;;;256.90;2252.80;;;;;;5011451;28;20018;-74
2024/03/06 05:46:56;;;;;;;61.75;42.08;;;256.90;2252.80;;;;;;5012077;28;20166;-73
2024/03/06 05:49:22;;;;;;;59.40;41.08;;;281.60;2278.40;;;;;;5011286;28;20026;-76
2024/03/06 05:51:48;;;;;;;58.75;42.17;;;281.60;2278.40;;;;;;5011340;28;20033;-75
2024/03/06 05:54:14;;;;;;;54.65;41.30;;;281.60;2278.40;;;;;;5011050;28;20325;-73
2024/03/06 05:56:40;;;;;;;50.13;36.55;;;256.90;2252.80;;;;;;5011019;28;20079;-73
2024/03/06 05:59:07;;;;;;;53.85;37.45;;;256.90;2252.80;;;;;;5011089;28;20034;-73
2024/03/06 06:01:34;;;;;;;50.83;34.40;;;281.60;2278.40;;;;;;5010380;28;20109;-73
2024/03/06 06:04:01;;;;;;;47.65;35.42;;;281.70;2278.40;;;;;;5007273;28;20096;-75
2024/03/06 06:06:27;;;;;;;52.28;37.72;;;281.80;2278.40;;;;;;5019226;28;20066;-74
2024/03/06 06:08:53;;;;;;;58.10;38.35;;;282.00;2278.40;;;;;;5022018;28;20041;-74
2024/03/06 06:11:19;;;;;;;55.55;37.45;;;281.90;2278.40;;;;;;5023617;28;20037;-73
2024/03/06 06:13:44;;;;;;;58.92;41.53;;;281.90;2278.40;;;;;;5021795;28;20028;-73
2024/03/06 06:16:10;;;;;;;55.83;41.65;;;281.90;2278.40;;;;;;5015015;28;20033;-74
2024/03/06 06:18:36;;;;;;;54.58;39.13;;;281.80;2278.40;;;;;;5014621;28;20041;-73
2024/03/06 06:21:04;;;;;;;51.40;37.15;;;282.00;2278.40;;;;;;5009247;28;20038;-84
2024/03/06 06:23:30;;;;;;;46.22;32.97;;;282.00;2278.40;;;;;;4986851;28;20057;-86
2024/03/06 06:25:56;;;;;;;48.03;33.83;;;281.90;2278.40;;;;;;4995585;28;20065;-87
2024/03/06 06:28:22;;;;;;;50.08;35.45;;;282.00;2278.40;;;;;;4984590;28;20055;-87
2024/03/06 06:30:48;;;;;;;49.83;37.70;;;282.00;2278.40;;;;;;5013382;28;20026;-89
2024/03/06 06:33:14;;;;;;;51.40;39.67;;;282.00;2278.40;;;;;;5004769;28;20103;-87
2024/03/06 06:35:40;;;;;;;49.78;35.30;;;282.00;2278.40;;;;;;5009064;28;20140;-86
2024/03/06 06:38:06;;;;;;;50.25;37.30;;;;;;;;;;4996088;28;20025;-86
2024/03/06 06:40:32;;;;;;;56.25;37.83;;;;;;;;;;4998640;28;20164;-72
2024/03/06 06:42:59;;;;;;;53.58;39.60;;;;;;;;;;5024440;28;20014;-72
2024/03/06 06:45:28;;;;;;;48.40;33.50;;;;;;;;;;5023398;28;20045;-79
2024/03/06 06:47:53;;;;;;;50.10;35.70;;;307.30;2304.00;;;;;;5015837;28;20022;-73
2024/03/06 06:50:23;;;;;;;44.45;33.45;;;282.50;2278.40;;;;;;5015308;28;20033;-73
2024/03/06 06:53:24;;;;;;;48.75;35.53;;;282.50;2278.40;;;;;;5013180;28;20438;-72
2024/03/06 06:55:49;;;;;;;50.28;36.72;;;307.20;2304.00;;;;;;5013255;28;20025;-74
2024/03/06 06:58:15;;;;;;;56.38;38.92;;;307.20;2304.00;;;;;;5014612;28;20106;-72
2024/03/06 07:00:41;;;;;;;51.40;40.10;;;307.20;2304.00;;;;;;5011550;28;20049;-72
2024/03/06 07:03:07;;;;;;;48.92;35.53;;;307.20;2304.00;;;;;;5004953;28;20018;-73
2024/03/06 07:05:33;;;;;;;52.60;38.53;;;307.20;2304.00;;;;;;5009076;28;20396;-72
2024/03/06 07:07:59;;;;;;;49.65;35.15;;;307.20;2304.00;;;;;;5016704;28;20066;-72
2024/03/06 07:10:26;;;;;;;44.63;32.92;;;;;;;;;;4996555;28;20019;-72
2024/03/06 07:12:51;;;;;;;49.05;34.25;;;307.60;2304.00;;;;;;4996059;28;20053;-72
2024/03/06 07:15:17;;;;;;;52.25;36.03;;;307.70;2304.00;;;;;;5006777;28;20076;-73
2024/03/06 07:17:43;;;;;;;51.15;34.85;;;308.00;2304.00;;;;;;5008646;28;20443;-73
2024/03/06 07:20:10;;;;;;;47.60;35.13;;;307.90;2304.00;;;;;;5007053;28;20036;-72
2024/03/06 07:22:35;;;;;;;46.05;32.33;;;308.10;2304.00;;;;;;5009673;28;20022;-73
2024/03/06 07:25:02;;;;;;;42.95;32.42;;;333.10;2329.60;;;;;;5009219;28;20037;-72
2024/03/06 07:27:28;;;;;;;52.08;35.85;;;333.40;2329.60;;;;;;5007055;28;20046;-71
2024/03/06 07:29:54;;;;;;;45.60;35.40;;;333.50;2329.60;;;;;;5017072;28;20037;-71
2024/03/06 07:32:19;;;;;;;45.35;35.30;;;333.70;2329.60;;;;;;5015716;28;20031;-71
2024/03/06 07:34:45;;;;;;;44.40;34.65;;;358.60;2329.60;;;;;;5008050;28;20164;-70
2024/03/06 07:37:21;;;;;;;43.38;33.50;;;359.00;2329.60;;;;;;5014436;28;20029;-72
2024/03/06 07:39:47;;;;;;;39.70;31.20;;;384.10;2329.60;;;;;;5026905;28;20387;-72
2024/03/06 07:42:12;;;;;;;44.95;32.50;;;384.80;2329.60;;;;;;5027001;28;20480;-76
2024/03/06 07:44:38;;;;;;;37.72;30.48;;;384.90;2329.60;;;;;;5024162;28;20432;-72
2024/03/06 07:47:04;;;;;;;40.28;30.98;;;384.90;2329.60;;;;;;5021248;28;20104;-71
2024/03/06 07:49:30;;;;;;;42.08;31.13;;;409.70;2355.20;;;;;;5007687;28;20030;-71
2024/03/06 07:51:57;;;;;;;38.13;29.80;;;435.50;2355.20;;;;;;5003096;28;20537;-71
2024/03/06 07:54:23;;;;;;;33.45;28.67;;;486.60;2380.80;;;;;;5009448;28;20052;-72
2024/03/06 07:56:49;;;;;;;36.47;29.88;;;486.80;2329.60;;;;;;5005543;28;20030;-75
2024/03/06 07:59:16;;;;;;;64.50;50.03;;;538.50;2124.80;;;;;;5001711;28;20468;-72
2024/03/06 08:01:42;;;;;;;50.75;43.45;;;563.80;2073.60;;;;;;5009122;28;20158;-70
2024/03/06 08:04:08;;;;;;;49.38;43.03;;;588.80;1971.20;;;;;;5005161;28;20431;-71
2024/03/06 08:06:37;;;;;;;92.72;77.93;;;589.70;1920.00;;;;;;5003795;28;20441;-74
2024/03/06 08:09:03;;;;;;;57.22;46.10;;;614.40;1868.80;;;;;;4996874;28;20026;-72
2024/03/06 08:11:28;;;;;;;48.00;42.83;;;640.10;1817.60;;;;;;5004915;28;20036;-71
2024/03/06 08:14:04;;;;;;;48.42;41.85;;;666.30;1740.80;;;;;;4997225;28;20473;-72
2024/03/06 08:16:30;;;;;;;41.58;37.10;;;666.40;1689.60;;;;;;4985091;28;20046;-72
2024/03/06 08:18:59;;;;;;;74.97;58.38;;;;;;;;;;5006497;28;20029;-71
2024/03/06 08:21:25;;;;;;;37.30;32.58;;;691.70;1638.40;;;;;;4996649;28;20068;-72
2024/03/06 08:23:50;;;;;;;38.97;33.92;;;666.50;1638.40;;;;;;5010611;28;20049;-70
2024/03/06 08:26:16;;;;;;;49.03;40.25;;;666.20;1664.00;;;;;;5021682;28;20053;-74
2024/03/06 08:28:42;;;;;;;44.03;32.00;;;640.30;1689.60;;;;;;5017678;28;20025;-78
2024/03/06 08:31:08;;;;;;;32.75;29.38;;;614.70;1766.40;;;;;;5003342;28;20018;-78
2024/03/06 08:33:34;;;;;;;52.33;43.95;;;614.60;1792.00;;;;;;5031253;28;20025;-84
2024/03/06 08:36:00;;;;;;;49.55;39.40;;;614.50;1766.40;;;;;;5023336;28;20033;-72
2024/03/06 08:38:25;;;;;;;43.55;34.85;;;589.60;1792.00;;;;;;5025473;28;20021;-71
2024/03/06 08:40:52;;;;;;;60.88;44.13;;;589.50;1792.00;;;;;;5008568;28;20021;-72
2024/03/06 08:43:19;;;;;;;94.07;66.68;;;;;;;;;;5032437;28;20024;-72
2024/03/06 08:45:45;;;;;;;56.13;43.28;;;589.20;1817.60;;;;;;5031924;28;20056;-71
2024/03/06 08:48:11;;;;;;;182.27;118.00;;;;;;;;;;5030408;28;20396;-71
2024/03/06 08:50:38;;;;;;;44.40;33.17;;;640.10;1740.80;;;;;;5009247;28;20030;-71
2024/03/06 08:53:04;;;;;;;37.35;28.45;;;640.30;1689.60;;;;;;5011763;28;20089;-72
2024/03/06 08:55:30;;;;;;;74.05;53.33;;;614.70;1766.40;;;;;;5020170;28;20482;-74
2024/03/06 08:57:56;;;;;;;100.65;75.57;;;640.40;1689.60;;;;;;5019162;28;20026;-73
2024/03/06 09:00:34;;;;;;;48.03;39.30;;;691.70;1587.20;;;;;;5014500;28;20798;-74
2024/03/06 09:03:00;;;;;;;31.52;28.30;;;691.20;1587.20;;;;;;5008490;28;20018;-71
2024/03/06 09:05:26;;;;;;;60.50;48.55;;;640.70;1612.80;;;;;;5016240;28;20037;-75
2024/03/06 09:07:52;;;;;;;172.02;142.10;;;665.80;1664.00;;;;;;5016031;28;20054;-73
2024/03/06 09:10:19;;;;;;;89.35;73.35;;;691.60;1587.20;;;;;;5030769;28;20024;-74
2024/03/06 09:12:45;;;;;;;46.70;41.85;;;691.70;1587.20;;;;;;5030099;28;20040;-73
2024/03/06 09:15:11;;;;;;;33.03;28.98;;;666.30;1587.20;;;;;;5030825;28;20596;-71
2024/03/06 09:17:38;;;;;;;40.78;36.38;;;640.70;1638.40;;;;;;5029279;28;20412;-74
2024/03/06 09:20:10;;;;;;;38.88;31.58;;;691.20;1561.60;;;;;;4997496;28;20087;-71
2024/03/06 09:22:37;;;;;;;82.70;69.90;;;640.70;1561.60;;;;;;5031550;28;20033;-71
2024/03/06 09:25:05;;;;;;;51.90;41.50;;;640.50;1587.20;;;;;;5030374;28;20045;-72
2024/03/06 09:27:30;;;;;;;46.35;38.00;;;640.40;1587.20;;;;;;5031054;28;20037;-71
2024/03/06 09:29:56;;;;;;;35.25;30.95;;;589.50;1715.20;;;;;;5024527;28;20109;-71
2024/03/06 09:32:22;;;;;;;98.32;77.20;;;563.20;1817.60;;;;;;5011930;28;20108;-72
2024/03/06 09:34:48;;;;;;;41.97;33.88;;;563.40;1817.60;;;;;;5030109;28;20495;-71
2024/03/06 09:37:14;;;;;;;50.38;39.33;;;563.80;1766.40;;;;;;5030503;28;20018;-72
2024/03/06 09:39:46;;;;;;;59.38;44.25;;;538.40;1740.80;;;;;;5030130;28;20021;-70
2024/03/06 09:42:12;;;;;;;30.80;23.70;;;538.00;1792.00;;;;;;5029461;28;20037;-71
2024/03/06 09:44:39;;;;;;;49.58;36.28;;;512.20;1817.60;;;;;;5023209;28;20045;-72
2024/03/06 09:47:07;;;;;;;28.48;22.08;;;512.50;1817.60;;;;;;5012606;28;20030;-71
2024/03/06 09:49:34;;;;;;;46.25;34.80;;;512.70;1843.20;;;;;;5030348;28;20036;-71
2024/03/06 09:52:00;;;;;;;45.97;33.60;;;;;;;;;;5029334;28;20427;-71
2024/03/06 09:54:26;;;;;;;98.05;77.85;;;487.20;1868.80;;;;;;5022438;28;20026;-71
2024/03/06 09:56:54;;;;;;;35.20;24.90;;;487.30;1868.80;;;;;;5014696;28;20487;-71
2024/03/06 09:59:20;;;;;;;48.70;36.33;;;512.40;1868.80;;;;;;5019328;28;20427;-71
2024/03/06 10:01:56;;;;;;;41.55;33.35;;;512.70;1843.20;;;;;;5021222;28;20048;-71
2024/03/06 10:04:28;;;;;;;43.83;35.75;;;512.90;1894.40;;;;;;5028883;28;20038;-73
2024/03/06 10:06:58;;;;;;;34.80;29.27;;;512.50;1920.00;;;;;;5029216;28;20036;-72
2024/03/06 10:09:24;;;;;;;35.10;27.48;;;512.60;1920.00;;;;;;5017169;28;20047;-72
2024/03/06 10:11:53;;;;;;;51.90;42.65;;;;;;;;;;5017154;28;20022;-72
2024/03/06 10:14:20;;;;;;;40.40;28.80;;;;;;;;;;5023486;28;20079;-72
2024/03/06 10:16:58;;;;;;;59.67;46.83;;;;;;;;;;5017563;28;20419;-72
2024/03/06 10:19:27;;;;;;;44.60;32.55;;;;;;;;;;5014646;28;20431;-77
2024/03/06 10:21:53;;;;;;;31.92;27.73;;;;;;;;;;5010579;28;20017;-72
2024/03/06 10:24:23;;;;;;;48.17;34.00;;;;;;;;;;5000387;28;20084;-73
2024/03/06 10:26:51;;;;;;;37.80;27.73;;;;;;;;;;5011894;28;20049;-75
2024/03/06 10:29:20;;;;;;;44.25;33.97;;;;;;;;;;5010731;28;20093;-71
2024/03/06 10:31:56;;;;;;;49.83;35.17;;;;;;;;;;5020181;28;20017;-72
2024/03/06 10:34:23;;;;;;;59.67;43.00;;;;;;;;;;5010327;28;20033;-72
2024/03/06 10:36:53;;;;;;;89.25;67.15;;;;;;;;;;5010557;28;20029;-72
2024/03/06 10:39:20;;;;;;;40.85;32.20;;;;;;;;;;5010247;28;20018;-72
2024/03/06 10:41:47;;;;;;;36.60;26.15;;;;;;;;;;5009892;28;20036;-72
2024/03/06 10:44:18;;;;;;;33.20;25.45;;;487.30;1894.40;;;;;;5010349;28;20010;-73
2024/03/06 10:46:47;;;;;;;32.85;26.67;;;487.20;1920.00;;;;;;5009859;28;20037;-72
2024/03/06 10:49:14;;;;;;;31.20;25.60;;;512.10;1894.40;;;;;;5010191;28;20038;-72
2024/03/06 10:51:46;;;;;;;39.20;30.85;;;486.80;1971.20;;;;;;5010403;28;20026;-73
2024/03/06 10:54:13;;;;;;;42.78;32.38;;;487.20;1971.20;;;;;;4996606;28;20473;-72
2024/03/06 10:56:43;;;;;;;35.90;28.98;;;512.30;1971.20;;;;;;5009892;28;20026;-71
2024/03/06 10:59:15;;;;;;;42.50;33.00;;;512.10;1971.20;;;;;;5010229;28;20014;-71
2024/03/06 11:01:44;;;;;;;43.05;31.13;;;461.70;2073.60;;;;;;5009970;28;20347;-72
2024/03/06 11:04:11;;;;;;;49.42;31.98;;;486.40;2073.60;;;;;;5010099;28;20209;-72
2024/03/06 11:06:37;;;;;;;42.42;29.88;;;461.60;2099.20;;;;;;5009320;28;20066;-73
2024/03/06 11:09:04;;;;;;;38.38;32.00;;;460.90;2150.40;;;;;;5009799;28;20014;-72
2024/03/06 11:11:31;;;;;;;40.63;33.33;;;461.30;2201.60;;;;;;5015377;28;20025;-72
2024/03/06 11:14:03;;;;;;;35.47;30.00;;;436.10;2278.40;;;;;;5017169;28;20022;-76
2024/03/06 11:16:42;;;;;;;41.88;32.75;;;461.10;2252.80;;;;;;5010763;28;20026;-80
2024/03/06 11:19:09;;;;;;;42.28;30.15;;;461.00;2304.00;;;;;;5010586;28;20018;-79
2024/03/06 11:21:35;;;;;;;50.55;36.03;;;460.80;2304.00;;;;;;5010198;28;20026;-75
2024/03/06 11:24:15;;;;;;;44.90;32.22;;;460.80;2304.00;;;;;;5009997;28;20032;-80
2024/03/06 11:26:48;;;;;;;45.83;35.75;;;;;;;;;;5008992;28;20074;-72
2024/03/06 11:29:18;;;;;;;61.53;43.40;;;;;;;;;;5009253;28;20354;-71
2024/03/06 11:32:03;;;;;;;47.45;33.40;;;;;;;;;;5009167;28;20017;-71
2024/03/06 11:34:30;;;;;;;62.63;43.95;;;;;;;;;;5009002;28;20033;-72
2024/03/06 11:36:59;;;;;;;78.53;53.75;;;;;;;;;;5009089;28;20067;-71
2024/03/06 11:39:33;;;;;;;107.57;74.15;;;;;;;;;;5008928;28;20018;-71
2024/03/06 11:42:00;;;;;;;116.70;71.82;;;;;;;;;;5018356;28;20060;-71
2024/03/06 11:44:29;;;;;;;117.70;82.68;;;;;;;;;;5009057;28;20018;-71
2024/03/06 11:46:55;;;;;;;81.28;60.13;;;;;;;;;;5009205;28;20029;-72
2024/03/06 11:49:24;;;;;;;72.88;52.30;;;;;;;;;;5009169;28;20380;-71
2024/03/06 11:51:53;;;;;;;127.50;82.00;;;;;;;;;;5009187;28;20088;-71
2024/03/06 11:54:23;;;;;;;130.38;87.82;;;;;;;;;;5009213;28;20096;-71
2024/03/06 11:56:50;;;;;;;180.65;120.20;;;;;;;;;;5009261;28;20014;-71
2024/03/06 11:59:17;;;;;;;89.43;69.68;;;;;;;;;;5009094;28;20022;-73
2024/03/06 12:01:43;;;;;;;105.65;78.82;;;;;;;;;;5009085;28;20029;-72
2024/03/06 12:04:10;;;;;;;89.82;68.35;;;;;;;;;;5009143;28;20022;-71
2024/03/06 12:06:37;;;;;;;107.32;76.97;;;410.40;2355.20;;;;;;5008272;28;20026;-71
2024/03/06 12:09:03;;;;;;;86.75;69.00;;;;;;;;;;5008879;28;20117;-72
2024/03/06 12:11:30;;;;;;;81.97;60.05;;;410.10;2355.20;;;;;;5008862;28;20057;-73
2024/03/06 12:13:57;;;;;;;55.88;43.45;;;;;;;;;;5008560;28;20022;-72
2024/03/06 12:16:23;;;;;;;79.70;58.70;;;;;;;;;;5007785;28;20534;-71
2024/03/06 12:18:58;;;;;;;67.80;52.42;;;;;;;;;;5008428;28;20060;-73
2024/03/06 12:21:42;;;;;;;76.40;58.92;;;;;;;;;;5007935;28;20492;-71
2024/03/06 12:24:09;;;;;;;58.00;46.38;;;;;;;;;;5008878;28;20060;-71
2024/03/06 12:26:37;;;;;;;66.03;50.88;;;;;;;;;;5007762;28;20464;-70
2024/03/06 12:29:10;;;;;;;79.97;59.75;;;;;;;;;;5008505;28;20025;-70
2024/03/06 12:31:37;;;;;;;58.63;46.75;;;;;;;;;;4990241;28;20427;-71
2024/03/06 12:34:03;;;;;;;70.57;55.90;;;;;;;;;;4981829;28;20027;-69